Time;durP1;ratioP1;P1;durP2;ratioP2;P2;SDS_P1;SDS_P2;PMS_P1;PMS_P2;Temp;Humidity;BMP_temperature;BMP_pressure;BME280_temperature;BME280_humidity;BME280_pressure;Samples;Min_cycle;Max_cycle;Signal;HPM_P1;HPM_P2
2021/03/06 00:00:22;;;;;;;0.50;0.50;;;2.10;99.90;;;;;;4996881;28;20226;-87
2021/03/06 00:02:49;;;;;;;0.97;0.97;;;2.10;99.90;;;;;;4975327;28;20217;-87
2021/03/06 00:05:15;;;;;;;0.60;0.60;;;2.20;99.90;;;;;;4980487;28;20298;-87
2021/03/06 00:07:41;;;;;;;0.43;0.43;;;2.20;99.90;;;;;;4980690;28;20290;-87
2021/03/06 00:10:13;;;;;;;0.70;0.70;;;2.30;99.90;;;;;;4972739;28;21275;-87
2021/03/06 00:12:43;;;;;;;0.60;0.60;;;2.40;99.90;;;;;;4983911;28;20192;-87
2021/03/06 00:15:11;;;;;;;0.77;0.50;;;2.40;99.90;;;;;;4996556;28;20293;-87
2021/03/06 00:17:37;;;;;;;0.53;0.53;;;2.40;99.90;;;;;;4974724;28;20245;-87
2021/03/06 00:20:07;;;;;;;1.80;1.13;;;2.40;99.90;;;;;;4972508;28;20689;-87
2021/03/06 00:22:33;;;;;;;0.80;0.70;;;2.40;99.90;;;;;;4981222;28;20332;-87
2021/03/06 00:24:59;;;;;;;0.40;0.40;;;2.30;99.90;;;;;;4995812;28;20656;-87
2021/03/06 00:27:25;;;;;;;1.00;1.00;;;2.00;99.90;;;;;;4982683;28;20543;-87
2021/03/06 00:29:51;;;;;;;0.33;0.33;;;2.00;99.90;;;;;;4979140;28;20278;-88
2021/03/06 00:32:17;;;;;;;10.57;0.83;;;2.00;99.90;;;;;;4979695;28;20332;-88
2021/03/06 00:34:43;;;;;;;0.40;0.40;;;2.00;99.90;;;;;;4984346;28;21318;-87
2021/03/06 00:37:09;;;;;;;0.80;0.80;;;2.00;99.90;;;;;;4972896;28;20302;-88
2021/03/06 00:39:35;;;;;;;0.50;0.50;;;2.10;99.90;;;;;;4977704;28;20200;-88
2021/03/06 00:42:01;;;;;;;0.67;0.60;;;2.20;99.90;;;;;;4985484;28;20231;-87
2021/03/06 00:44:27;;;;;;;1.10;0.97;;;2.20;99.90;;;;;;4985503;28;20766;-87
2021/03/06 00:46:52;;;;;;;0.23;0.23;;;2.30;99.90;;;;;;4965023;28;20212;-88
2021/03/06 00:49:19;;;;;;;0.37;0.37;;;2.30;99.90;;;;;;4980166;28;20563;-88
2021/03/06 00:51:46;;;;;;;4.13;1.13;;;2.30;99.90;;;;;;4957005;28;20216;-87
2021/03/06 00:54:12;;;;;;;11.23;1.60;;;2.30;99.90;;;;;;4981496;28;20306;-88
2021/03/06 00:56:37;;;;;;;0.60;0.60;;;2.40;99.90;;;;;;4957422;28;20716;-86
2021/03/06 00:59:03;;;;;;;5.20;0.77;;;2.40;99.90;;;;;;4957195;28;20211;-87
2021/03/06 01:01:29;;;;;;;0.37;0.37;;;2.40;99.90;;;;;;4980142;28;20603;-87
2021/03/06 01:03:55;;;;;;;0.40;0.40;;;2.50;99.90;;;;;;4968889;28;21128;-88
2021/03/06 01:06:21;;;;;;;0.60;0.57;;;2.40;99.90;;;;;;4984069;28;20214;-86
2021/03/06 01:08:46;;;;;;;0.40;0.40;;;2.50;99.90;;;;;;4980283;28;20219;-87
2021/03/06 01:11:16;;;;;;;0.40;0.40;;;2.50;99.90;;;;;;4960585;28;20224;-88
2021/03/06 01:13:42;;;;;;;0.30;0.30;;;2.60;99.90;;;;;;4961261;28;20239;-87
2021/03/06 01:16:08;;;;;;;0.43;0.43;;;2.60;99.90;;;;;;4947811;28;20563;-87
2021/03/06 01:18:33;;;;;;;0.93;0.93;;;2.60;99.90;;;;;;4985899;28;20215;-87
2021/03/06 01:20:59;;;;;;;0.73;0.37;;;2.70;99.90;;;;;;4983297;28;20281;-87
2021/03/06 01:23:25;;;;;;;0.40;0.40;;;2.60;99.90;;;;;;4982825;28;20234;-86
2021/03/06 01:25:51;;;;;;;0.50;0.50;;;2.60;99.90;;;;;;4955945;28;20238;-88
2021/03/06 01:28:17;;;;;;;6.80;1.70;;;2.60;99.90;;;;;;4964661;28;20188;-87
2021/03/06 01:30:43;;;;;;;0.77;0.77;;;2.60;99.90;;;;;;4977235;28;20524;-88
2021/03/06 01:33:09;;;;;;;0.47;0.47;;;2.70;99.90;;;;;;4993045;28;20782;-87
2021/03/06 01:35:35;;;;;;;0.30;0.30;;;2.80;99.90;;;;;;4979493;28;20219;-87
2021/03/06 01:38:01;;;;;;;0.57;0.57;;;2.80;99.90;;;;;;4975722;28;20255;-86
2021/03/06 01:40:32;;;;;;;1.37;0.67;;;2.90;99.90;;;;;;4977880;28;20220;-87
2021/03/06 01:42:59;;;;;;;0.77;0.50;;;2.90;99.90;;;;;;4979855;28;20191;-86
2021/03/06 01:45:25;;;;;;;2.07;0.67;;;2.90;99.90;;;;;;4979599;28;20188;-87
2021/03/06 01:47:51;;;;;;;0.80;0.80;;;3.00;99.90;;;;;;4977509;28;20293;-88
2021/03/06 01:50:25;;;;;;;2.40;1.97;;;3.00;99.90;;;;;;4998396;28;20696;-88
2021/03/06 01:52:50;;;;;;;0.87;0.87;;;3.00;99.90;;;;;;4999098;28;20333;-88
2021/03/06 01:55:19;;;;;;;0.93;0.93;;;3.00;99.90;;;;;;4953948;28;20320;-87
2021/03/06 01:57:46;;;;;;;0.73;0.73;;;3.00;99.90;;;;;;4958789;28;20239;-87
2021/03/06 02:00:12;;;;;;;1.57;0.80;;;2.90;99.90;;;;;;4953315;28;20408;-88
2021/03/06 02:02:38;;;;;;;0.50;0.50;;;2.80;99.90;;;;;;4959492;28;20212;-87
2021/03/06 02:05:04;;;;;;;0.70;0.70;;;2.80;99.90;;;;;;4951587;28;20999;-87
2021/03/06 02:07:30;;;;;;;1.00;1.00;;;2.80;99.90;;;;;;4919412;28;20232;-87
2021/03/06 02:10:00;;;;;;;1.47;1.37;;;2.70;99.90;;;;;;4938486;28;20196;-87
2021/03/06 02:12:35;;;;;;;1.03;0.70;;;2.70;99.90;;;;;;4970929;28;20272;-87
2021/03/06 02:15:20;;;;;;;4.70;1.63;;;2.80;99.90;;;;;;4955157;28;20685;-87
2021/03/06 02:17:52;;;;;;;0.73;0.73;;;2.80;99.90;;;;;;4972429;28;20299;-87
2021/03/06 02:20:24;;;;;;;0.40;0.40;;;2.80;99.90;;;;;;4954108;28;20228;-88
2021/03/06 02:23:28;;;;;;;0.50;0.50;;;2.90;99.90;;;;;;4969170;28;20256;-88
2021/03/06 02:26:29;;;;;;;0.53;0.53;;;2.90;99.90;;;;;;4954497;28;20274;-87
2021/03/06 02:29:04;;;;;;;0.67;0.67;;;2.90;99.90;;;;;;4949404;28;20720;-87
2021/03/06 02:31:33;;;;;;;0.60;0.60;;;2.90;99.90;;;;;;4966535;28;20220;-88
2021/03/06 02:34:08;;;;;;;0.80;0.80;;;2.90;99.90;;;;;;4965810;28;20228;-88
2021/03/06 02:36:39;;;;;;;1.07;1.00;;;3.00;99.90;;;;;;4967371;28;20215;-88
2021/03/06 02:39:09;;;;;;;0.40;0.40;;;3.00;99.90;;;;;;4963838;28;20226;-87
2021/03/06 02:41:38;;;;;;;1.13;1.13;;;3.00;99.90;;;;;;4963745;28;20216;-88
2021/03/06 02:44:05;;;;;;;0.60;0.60;;;3.00;99.90;;;;;;4965355;28;20286;-88
2021/03/06 02:46:32;;;;;;;0.40;0.40;;;3.00;99.90;;;;;;4950717;28;20232;-88
2021/03/06 02:48:57;;;;;;;0.90;0.90;;;3.10;99.90;;;;;;4968192;28;20281;-87
2021/03/06 02:51:23;;;;;;;2.07;0.87;;;3.10;99.90;;;;;;4970101;28;20295;-88
2021/03/06 02:53:49;;;;;;;0.87;0.87;;;3.10;99.90;;;;;;4944587;28;20734;-88
2021/03/06 02:56:18;;;;;;;0.60;0.60;;;3.00;99.90;;;;;;4944662;28;20219;-87
2021/03/06 02:59:18;;;;;;;2.23;2.10;;;3.10;99.90;;;;;;4964421;28;20231;-88
2021/03/06 03:01:59;;;;;;;1.70;1.03;;;3.00;99.90;;;;;;4963723;28;20235;-88
2021/03/06 03:04:54;;;;;;;1.57;0.90;;;3.00;99.90;;;;;;4973986;28;20217;-90
2021/03/06 03:07:48;;;;;;;0.93;0.93;;;3.00;99.90;;;;;;4945540;28;20259;-88
2021/03/06 03:10:15;;;;;;;0.57;0.57;;;3.10;99.90;;;;;;4948767;28;20240;-87
2021/03/06 03:12:55;;;;;;;0.87;0.57;;;3.10;99.90;;;;;;4952638;28;20758;-88
2021/03/06 03:15:30;;;;;;;0.47;0.47;;;3.10;99.90;;;;;;4966939;28;20262;-89
2021/03/06 03:17:57;;;;;;;0.93;0.93;;;3.10;99.90;;;;;;4968116;28;20227;-88
2021/03/06 03:20:34;;;;;;;0.23;0.23;;;3.20;99.90;;;;;;4969706;28;20241;-90
2021/03/06 03:23:15;;;;;;;0.70;0.70;;;3.30;99.90;;;;;;4971591;28;20252;-89
2021/03/06 03:25:43;;;;;;;2.70;0.97;;;3.30;99.90;;;;;;4960043;28;20215;-88
2021/03/06 03:28:10;;;;;;;1.10;1.00;;;3.30;99.90;;;;;;4969744;28;20188;-87
2021/03/06 03:30:37;;;;;;;0.50;0.50;;;3.30;99.90;;;;;;4962343;28;20213;-89
2021/03/06 03:33:08;;;;;;;1.90;0.50;;;3.30;99.90;;;;;;4953993;28;20232;-89
2021/03/06 03:35:36;;;;;;;0.67;0.57;;;3.30;99.90;;;;;;4973652;28;20219;-88
2021/03/06 03:38:02;;;;;;;0.80;0.80;;;3.40;99.90;;;;;;4952193;28;20235;-89
2021/03/06 03:40:28;;;;;;;0.47;0.47;;;3.50;99.90;;;;;;4955185;28;20371;-89
2021/03/06 03:42:57;;;;;;;0.47;0.47;;;3.50;99.90;;;;;;4954850;28;20618;-89
2021/03/06 03:45:23;;;;;;;0.40;0.40;;;3.60;99.90;;;;;;4953057;28;20217;-88
2021/03/06 03:47:48;;;;;;;0.40;0.40;;;3.60;99.90;;;;;;4975912;28;20208;-89
2021/03/06 03:50:16;;;;;;;0.40;0.40;;;3.70;99.90;;;;;;4970807;28;20224;-89
2021/03/06 03:52:44;;;;;;;2.30;0.50;;;3.70;99.90;;;;;;4939574;28;20303;-89
2021/03/06 03:55:11;;;;;;;0.43;0.43;;;3.70;99.90;;;;;;4971930;28;20225;-89
2021/03/06 03:57:38;;;;;;;0.37;0.37;;;3.80;99.90;;;;;;4959226;28;20275;-89
2021/03/06 04:00:09;;;;;;;0.83;0.80;;;3.80;99.90;;;;;;4959071;28;20240;-89
2021/03/06 04:02:35;;;;;;;1.03;1.03;;;3.70;99.90;;;;;;4974990;28;20226;-88
2021/03/06 04:05:03;;;;;;;1.00;0.90;;;3.70;99.90;;;;;;4953312;28;20254;-87
2021/03/06 04:07:29;;;;;;;4.03;0.97;;;3.70;99.90;;;;;;4971734;28;20224;-86
2021/03/06 04:09:54;;;;;;;0.50;0.50;;;3.80;99.90;;;;;;4921232;28;20201;-86
2021/03/06 04:12:20;;;;;;;0.30;0.30;;;3.70;99.90;;;;;;4961244;28;20960;-88
2021/03/06 04:14:46;;;;;;;0.40;0.40;;;3.70;99.90;;;;;;4923012;28;20235;-87
2021/03/06 04:17:12;;;;;;;2.57;0.57;;;3.70;99.90;;;;;;4929118;28;20228;-89
2021/03/06 04:19:38;;;;;;;0.80;0.80;;;3.70;99.90;;;;;;4954766;28;20235;-86
2021/03/06 04:22:04;;;;;;;0.70;0.60;;;3.60;99.90;;;;;;4972328;28;20196;-87
2021/03/06 04:24:30;;;;;;;1.90;0.90;;;3.60;99.90;;;;;;4942880;28;20240;-86
2021/03/06 04:26:56;;;;;;;0.40;0.40;;;3.60;99.90;;;;;;4958348;28;20232;-86
2021/03/06 04:29:23;;;;;;;6.33;1.70;;;3.60;99.90;;;;;;4962679;28;20235;-87
2021/03/06 04:31:49;;;;;;;0.77;0.70;;;3.60;99.90;;;;;;4971301;28;20232;-86
2021/03/06 04:34:15;;;;;;;1.03;1.03;;;3.60;99.90;;;;;;4978519;28;20525;-88
2021/03/06 04:36:41;;;;;;;0.40;0.40;;;3.60;99.90;;;;;;4939206;28;20277;-88
2021/03/06 04:39:07;;;;;;;2.37;0.87;;;3.60;99.90;;;;;;4977694;28;20227;-88
2021/03/06 04:41:33;;;;;;;0.83;0.83;;;3.60;99.90;;;;;;4938800;28;20221;-88
2021/03/06 04:43:59;;;;;;;0.30;0.30;;;3.50;99.90;;;;;;4954507;28;20302;-88
2021/03/06 04:46:25;;;;;;;0.50;0.50;;;3.50;99.90;;;;;;4961830;28;20275;-87
2021/03/06 04:48:51;;;;;;;1.80;0.80;;;3.60;99.90;;;;;;4962448;28;20243;-88
2021/03/06 04:51:17;;;;;;;0.60;0.60;;;3.60;99.90;;;;;;4955763;28;21201;-86
2021/03/06 04:53:43;;;;;;;1.33;1.33;;;3.60;99.90;;;;;;4964460;28;20263;-89
2021/03/06 04:56:08;;;;;;;0.57;0.30;;;3.60;99.90;;;;;;4958994;28;20772;-87
2021/03/06 04:58:34;;;;;;;0.50;0.50;;;3.50;99.90;;;;;;4957655;28;20233;-88
2021/03/06 05:01:00;;;;;;;2.23;0.43;;;3.50;99.90;;;;;;4972548;28;20199;-88
2021/03/06 05:03:25;;;;;;;0.70;0.40;;;3.50;99.90;;;;;;4957346;28;20196;-87
2021/03/06 05:05:51;;;;;;;4.90;0.70;;;3.50;99.90;;;;;;4952813;28;20243;-87
2021/03/06 05:08:17;;;;;;;0.40;0.40;;;3.50;99.90;;;;;;4956346;28;20212;-87
2021/03/06 05:10:43;;;;;;;0.50;0.50;;;3.60;99.90;;;;;;4957541;28;20299;-88
2021/03/06 05:13:08;;;;;;;1.97;0.73;;;3.50;99.90;;;;;;4979222;28;20216;-87
2021/03/06 05:15:34;;;;;;;1.03;0.50;;;3.60;99.90;;;;;;4957165;28;20203;-89
2021/03/06 05:18:00;;;;;;;0.90;0.90;;;3.50;99.90;;;;;;4961940;28;21073;-88
2021/03/06 05:20:26;;;;;;;0.50;0.50;;;3.50;99.90;;;;;;4980381;28;21052;-89
2021/03/06 05:22:51;;;;;;;1.00;0.90;;;3.50;99.90;;;;;;4955187;28;20223;-87
2021/03/06 05:25:17;;;;;;;0.50;0.50;;;3.50;99.90;;;;;;4948183;28;20189;-89
2021/03/06 05:27:43;;;;;;;0.30;0.30;;;3.50;99.90;;;;;;4958246;28;20220;-88
2021/03/06 05:30:09;;;;;;;0.60;0.60;;;3.50;99.90;;;;;;4963057;28;20270;-87
2021/03/06 05:32:35;;;;;;;0.40;0.40;;;3.50;99.90;;;;;;4953951;28;20251;-88
2021/03/06 05:35:02;;;;;;;0.57;0.50;;;3.50;99.90;;;;;;4955230;28;20328;-88
2021/03/06 05:37:28;;;;;;;0.30;0.30;;;3.50;99.90;;;;;;4977933;28;20266;-88
2021/03/06 05:39:54;;;;;;;0.30;0.30;;;3.50;99.90;;;;;;4958112;28;20690;-87
2021/03/06 05:42:20;;;;;;;1.43;0.60;;;3.60;99.90;;;;;;4953942;28;20220;-89
2021/03/06 05:44:46;;;;;;;0.47;0.47;;;3.60;99.90;;;;;;4942394;28;20232;-88
2021/03/06 05:47:13;;;;;;;0.30;0.30;;;3.60;99.90;;;;;;4944549;28;20224;-88
2021/03/06 05:49:38;;;;;;;0.40;0.40;;;3.60;99.90;;;;;;4956409;28;20214;-86
2021/03/06 05:52:06;;;;;;;0.20;0.20;;;3.70;99.90;;;;;;4977934;28;20257;-87
2021/03/06 05:54:35;;;;;;;19.87;2.07;;;3.70;99.90;;;;;;4958447;28;20334;-88
2021/03/06 05:57:04;;;;;;;0.30;0.30;;;3.70;99.90;;;;;;4961645;28;20233;-87
2021/03/06 05:59:30;;;;;;;7.03;1.17;;;3.70;99.90;;;;;;4951725;28;20310;-88
2021/03/06 06:01:56;;;;;;;0.90;0.90;;;3.70;99.90;;;;;;4962776;28;20216;-87
2021/03/06 06:04:28;;;;;;;2.70;0.97;;;3.70;99.90;;;;;;4960196;28;20228;-86
2021/03/06 06:06:55;;;;;;;7.73;0.70;;;3.70;99.90;;;;;;4956589;28;20204;-88
2021/03/06 06:09:22;;;;;;;1.30;0.43;;;3.80;99.90;;;;;;4958322;28;20299;-88
2021/03/06 06:11:47;;;;;;;0.40;0.40;;;3.80;99.90;;;;;;4937806;28;20305;-88
2021/03/06 06:14:13;;;;;;;0.30;0.30;;;3.80;99.90;;;;;;4965340;28;20306;-89
2021/03/06 06:16:39;;;;;;;0.30;0.30;;;3.80;99.90;;;;;;4982747;28;20224;-88
2021/03/06 06:19:05;;;;;;;1.90;1.17;;;3.80;99.90;;;;;;4969482;28;20203;-88
2021/03/06 06:21:41;;;;;;;0.40;0.40;;;3.90;99.90;;;;;;4988801;28;20188;-87
2021/03/06 06:24:10;;;;;;;5.63;0.67;;;3.90;99.90;;;;;;4957768;28;20305;-88
2021/03/06 06:26:38;;;;;;;0.40;0.40;;;3.90;99.90;;;;;;4994587;28;20219;-88
2021/03/06 06:29:05;;;;;;;0.40;0.40;;;3.90;99.90;;;;;;4993620;28;20818;-88
2021/03/06 06:31:31;;;;;;;0.67;0.67;;;3.90;99.90;;;;;;4991268;28;20325;-88
2021/03/06 06:33:57;;;;;;;1.97;0.47;;;3.90;99.90;;;;;;4984210;28;20221;-88
2021/03/06 06:36:33;;;;;;;0.70;0.70;;;4.00;99.90;;;;;;4965515;28;20255;-88
2021/03/06 06:38:58;;;;;;;18.67;0.83;;;4.00;99.90;;;;;;4947413;28;20247;-88
2021/03/06 06:41:44;;;;;;;3.50;1.13;;;4.10;99.90;;;;;;4962878;28;20224;-88
2021/03/06 06:44:10;;;;;;;0.53;0.50;;;4.10;99.90;;;;;;4991028;28;20246;-88
2021/03/06 06:46:36;;;;;;;7.70;1.03;;;4.10;99.90;;;;;;4949483;28;20215;-88
2021/03/06 06:49:02;;;;;;;3.27;1.77;;;4.10;99.90;;;;;;4972922;28;20188;-88
2021/03/06 06:51:28;;;;;;;0.40;0.40;;;4.10;99.90;;;;;;4973423;28;20211;-87
2021/03/06 06:54:10;;;;;;;0.30;0.30;;;4.10;99.90;;;;;;4956953;28;20245;-88
2021/03/06 06:56:37;;;;;;;0.50;0.40;;;4.10;99.90;;;;;;4989980;28;20235;-88
2021/03/06 06:59:04;;;;;;;0.50;0.50;;;3.90;99.90;;;;;;4978727;28;20226;-87
2021/03/06 07:01:32;;;;;;;0.20;0.20;;;3.90;99.90;;;;;;4995430;28;20223;-87
2021/03/06 07:04:06;;;;;;;0.53;0.53;;;3.90;99.90;;;;;;4991410;28;20248;-86
2021/03/06 07:06:33;;;;;;;0.57;0.37;;;4.00;99.90;;;;;;4995384;28;20218;-89
2021/03/06 07:09:15;;;;;;;0.20;0.20;;;4.00;99.90;;;;;;4972693;28;20219;-87
2021/03/06 07:11:42;;;;;;;0.30;0.30;;;3.70;99.90;;;;;;4972509;28;20290;-87
2021/03/06 07:14:08;;;;;;;0.30;0.30;;;3.60;99.90;;;;;;4994628;28;20711;-89
2021/03/06 07:16:53;;;;;;;0.40;0.40;;;3.60;99.90;;;;;;4947350;28;20217;-85
2021/03/06 07:19:19;;;;;;;0.40;0.40;;;3.60;99.90;;;;;;4979107;28;20219;-88
2021/03/06 07:21:49;;;;;;;0.20;0.20;;;3.70;99.90;;;;;;4966413;28;20638;-89
2021/03/06 07:24:16;;;;;;;0.20;0.20;;;3.70;99.90;;;;;;4997276;28;20330;-85
2021/03/06 07:26:42;;;;;;;0.30;0.30;;;3.80;99.90;;;;;;4998983;28;20310;-87
2021/03/06 07:29:08;;;;;;;0.30;0.30;;;3.80;99.90;;;;;;4972854;28;20257;-84
2021/03/06 07:31:38;;;;;;;2.43;0.60;;;3.80;99.90;;;;;;4991731;28;20219;-87
2021/03/06 07:34:08;;;;;;;1.40;0.50;;;3.80;99.90;;;;;;4993251;28;20257;-88
2021/03/06 07:36:37;;;;;;;0.40;0.40;;;4.00;99.90;;;;;;4994385;28;20202;-85
2021/03/06 07:39:04;;;;;;;0.50;0.50;;;4.10;99.90;;;;;;4987819;28;20235;-86
2021/03/06 07:41:37;;;;;;;0.77;0.60;;;4.30;99.90;;;;;;4995042;28;20215;-87
2021/03/06 07:44:04;;;;;;;0.53;0.53;;;4.40;99.90;;;;;;4998634;28;20223;-88
2021/03/06 07:46:30;;;;;;;2.20;1.00;;;4.50;99.90;;;;;;4962453;28;20238;-88
2021/03/06 07:48:59;;;;;;;0.57;0.57;;;4.70;99.90;;;;;;4984836;28;20188;-87
2021/03/06 07:51:26;;;;;;;0.53;0.53;;;4.80;99.90;;;;;;4996713;28;20222;-86
2021/03/06 07:53:52;;;;;;;0.43;0.43;;;4.90;99.90;;;;;;4959991;28;20248;-86
2021/03/06 07:56:18;;;;;;;0.60;0.60;;;5.00;99.90;;;;;;4930532;28;20260;-89
2021/03/06 07:58:48;;;;;;;1.13;0.50;;;5.10;99.90;;;;;;4952404;28;20227;-91
2021/03/06 08:01:28;;;;;;;1.77;1.03;;;5.10;99.90;;;;;;4960097;28;20304;-92
2021/03/06 08:03:54;;;;;;;0.20;0.20;;;5.30;99.90;;;;;;4959476;28;20271;-91
2021/03/06 08:06:25;;;;;;;0.77;0.57;;;5.60;99.90;;;;;;4963189;28;20767;-90
2021/03/06 08:09:04;;;;;;;0.57;0.57;;;6.00;99.90;;;;;;4971121;28;20227;-91
2021/03/06 08:11:33;;;;;;;0.50;0.50;;;6.30;99.90;;;;;;4974505;28;20222;-89
2021/03/06 08:14:01;;;;;;;0.47;0.47;;;6.60;99.90;;;;;;4978332;28;20251;-90
2021/03/06 08:16:27;;;;;;;0.37;0.37;;;6.70;99.90;;;;;;4975457;28;20270;-91
2021/03/06 08:18:58;;;;;;;0.40;0.40;;;6.80;99.90;;;;;;4983238;28;20644;-90
2021/03/06 08:21:28;;;;;;;1.37;1.27;;;7.00;99.90;;;;;;4972660;28;20227;-90
2021/03/06 08:24:15;;;;;;;0.30;0.30;;;7.50;99.90;;;;;;4982357;28;20224;-91
2021/03/06 08:26:59;;;;;;;0.50;0.50;;;8.30;99.90;;;;;;4981704;28;20825;-91
2021/03/06 08:29:25;;;;;;;2.53;0.47;;;8.20;99.90;;;;;;4975817;28;20305;-92
2021/03/06 08:32:03;;;;;;;0.50;0.50;;;8.80;99.90;;;;;;4980956;28;20231;-89
2021/03/06 08:34:39;;;;;;;0.20;0.20;;;9.40;99.90;;;;;;4977831;28;20874;-89
2021/03/06 08:37:19;;;;;;;1.80;0.73;;;9.20;99.90;;;;;;4977143;28;20303;-89
2021/03/06 08:39:47;;;;;;;0.93;0.67;;;8.80;99.90;;;;;;4978634;28;20279;-90
2021/03/06 08:42:18;;;;;;;0.43;0.43;;;8.60;99.90;;;;;;4979660;28;20227;-91
2021/03/06 08:44:45;;;;;;;0.40;0.40;;;8.40;99.90;;;;;;4973152;28;20263;-92
2021/03/06 08:47:11;;;;;;;0.50;0.50;;;8.00;99.90;;;;;;4954339;28;20229;-91
2021/03/06 08:49:38;;;;;;;1.80;1.17;;;7.80;99.90;;;;;;4960671;28;20306;-91
2021/03/06 08:52:04;;;;;;;0.30;0.30;;;7.80;99.90;;;;;;4952855;28;20212;-90
2021/03/06 08:54:41;;;;;;;3.30;0.40;;;7.60;99.90;;;;;;4972402;28;20244;-93
2021/03/06 08:57:35;;;;;;;9.53;1.43;;;7.60;99.90;;;;;;4957706;28;20222;-91
2021/03/06 09:00:15;;;;;;;0.53;0.40;;;7.40;99.90;;;;;;4976743;28;21021;-89
2021/03/06 09:02:40;;;;;;;0.37;0.17;;;7.30;99.90;;;;;;4964482;28;20203;-90
2021/03/06 09:05:19;;;;;;;0.40;0.40;;;7.10;99.90;;;;;;4959045;28;20956;-91
2021/03/06 09:07:47;;;;;;;0.40;0.40;;;7.30;99.90;;;;;;4980239;28;20220;-91
2021/03/06 09:10:27;;;;;;;0.20;0.20;;;7.00;99.90;;;;;;4979270;28;20232;-91
2021/03/06 09:12:57;;;;;;;0.30;0.30;;;6.80;99.90;;;;;;4974073;28;20219;-89
2021/03/06 09:15:24;;;;;;;0.30;0.30;;;6.50;99.90;;;;;;4961886;28;20259;-93
2021/03/06 09:17:51;;;;;;;0.20;0.20;;;6.80;99.90;;;;;;4977615;28;20232;-91
2021/03/06 09:20:17;;;;;;;0.30;0.30;;;6.70;99.90;;;;;;4971859;28;20805;-89
2021/03/06 09:22:44;;;;;;;2.27;0.63;;;6.50;99.90;;;;;;4957312;28;20364;-88
2021/03/06 09:25:11;;;;;;;0.23;0.23;;;6.70;99.90;;;;;;4938995;28;20307;-88
2021/03/06 09:27:48;;;;;;;0.20;0.20;;;6.70;99.90;;;;;;4979665;28;20180;-89
2021/03/06 09:30:24;;;;;;;4.73;2.30;;;6.60;99.90;;;;;;4973447;28;20251;-91
2021/03/06 09:32:50;;;;;;;0.30;0.30;;;6.50;99.90;;;;;;4960900;28;20255;-92
2021/03/06 09:35:17;;;;;;;0.20;0.20;;;6.30;99.90;;;;;;4958399;28;20208;-92
2021/03/06 09:37:43;;;;;;;0.30;0.30;;;6.60;99.90;;;;;;4956363;28;20736;-93
2021/03/06 09:40:17;;;;;;;0.30;0.30;;;6.90;99.90;;;;;;4974009;28;20189;-93
2021/03/06 09:42:43;;;;;;;0.40;0.40;;;7.40;99.90;;;;;;4972469;28;20189;-93
2021/03/06 09:45:09;;;;;;;1.07;0.43;;;7.70;99.90;;;;;;4940233;28;20591;-93
2021/03/06 09:47:35;;;;;;;0.20;0.20;;;7.40;99.90;;;;;;4947652;28;20225;-92
2021/03/06 09:50:01;;;;;;;0.30;0.30;;;7.10;99.90;;;;;;4934190;28;20694;-92
2021/03/06 09:52:34;;;;;;;0.43;0.43;;;7.00;99.90;;;;;;4958657;28;20235;-93
2021/03/06 09:55:01;;;;;;;4.67;0.63;;;7.00;99.90;;;;;;4978620;28;20676;-93
2021/03/06 09:57:27;;;;;;;0.23;0.23;;;6.90;99.90;;;;;;4970812;28;20212;-92
2021/03/06 09:59:53;;;;;;;0.10;0.10;;;7.20;99.90;;;;;;4978009;28;20255;-91
2021/03/06 10:02:25;;;;;;;0.40;0.40;;;7.40;99.90;;;;;;4975545;28;20314;-94
2021/03/06 10:04:51;;;;;;;0.97;0.30;;;7.20;99.90;;;;;;4992786;28;20227;-92
2021/03/06 10:07:21;;;;;;;0.40;0.40;;;7.20;99.90;;;;;;4991672;28;20203;-89
2021/03/06 10:09:47;;;;;;;0.30;0.30;;;6.90;99.90;;;;;;4989937;28;20899;-89
2021/03/06 10:12:16;;;;;;;0.30;0.30;;;6.60;99.90;;;;;;4965435;28;20234;-91
2021/03/06 10:14:47;;;;;;;1.07;0.97;;;6.70;99.90;;;;;;4951177;28;20224;-89
2021/03/06 10:17:15;;;;;;;0.30;0.30;;;6.50;99.90;;;;;;4952198;28;20302;-92
2021/03/06 10:19:51;;;;;;;0.30;0.30;;;6.20;99.90;;;;;;4964643;28;20230;-90
2021/03/06 10:22:19;;;;;;;1.43;0.93;;;6.10;99.90;;;;;;4993152;28;20198;-92
2021/03/06 10:24:59;;;;;;;0.40;0.40;;;6.20;99.90;;;;;;4975838;28;20262;-91
2021/03/06 10:27:38;;;;;;;1.30;0.83;;;6.30;99.90;;;;;;4992277;28;20774;-91
2021/03/06 10:30:12;;;;;;;0.20;0.20;;;6.20;99.90;;;;;;4991619;28;20234;-90
2021/03/06 10:32:52;;;;;;;0.30;0.30;;;6.20;99.90;;;;;;4990785;28;20235;-91
2021/03/06 10:35:42;;;;;;;0.20;0.20;;;6.40;99.90;;;;;;4980649;28;20250;-92
2021/03/06 10:38:10;;;;;;;0.50;0.50;;;6.40;99.90;;;;;;4989497;28;20227;-90
2021/03/06 10:40:44;;;;;;;1.17;1.17;;;6.30;99.90;;;;;;4980178;28;20219;-92
2021/03/06 10:43:31;;;;;;;0.30;0.30;;;6.60;99.90;;;;;;4982012;28;20214;-91
2021/03/06 10:46:14;;;;;;;0.37;0.37;;;6.90;99.90;;;;;;4942688;28;20212;-91
2021/03/06 10:48:42;;;;;;;0.20;0.20;;;7.30;99.90;;;;;;4971304;28;20211;-91
2021/03/06 10:51:08;;;;;;;0.27;0.27;;;7.30;99.90;;;;;;4976600;28;20229;-90
2021/03/06 10:53:35;;;;;;;0.87;0.87;;;7.50;99.90;;;;;;4957299;28;20239;-89
2021/03/06 10:56:06;;;;;;;0.40;0.33;;;7.40;99.90;;;;;;4964924;28;20375;-89
2021/03/06 10:58:46;;;;;;;0.40;0.40;;;7.50;99.90;;;;;;4967976;28;20294;-89
2021/03/06 11:01:18;;;;;;;0.30;0.30;;;7.50;99.90;;;;;;4990053;28;20187;-87
2021/03/06 11:03:48;;;;;;;0.30;0.30;;;7.70;99.90;;;;;;4975893;28;20396;-88
2021/03/06 11:06:14;;;;;;;5.00;0.50;;;7.80;99.90;;;;;;4991201;28;20219;-88
2021/03/06 11:08:42;;;;;;;0.30;0.30;;;7.10;99.90;;;;;;4996150;28;20211;-88
2021/03/06 11:11:09;;;;;;;0.30;0.30;;;7.10;99.90;;;;;;4993941;28;20656;-88
2021/03/06 11:13:43;;;;;;;0.30;0.30;;;7.10;99.90;;;;;;4977689;28;20231;-88
2021/03/06 11:16:13;;;;;;;1.50;1.00;;;7.00;99.90;;;;;;4979788;28;20184;-87
2021/03/06 11:18:41;;;;;;;0.30;0.30;;;6.80;99.90;;;;;;4997146;28;20204;-87
2021/03/06 11:21:13;;;;;;;0.43;0.43;;;6.90;99.90;;;;;;4989684;28;20261;-88
2021/03/06 11:23:40;;;;;;;0.50;0.50;;;6.70;99.90;;;;;;4988367;28;20226;-88
2021/03/06 11:26:06;;;;;;;0.70;0.50;;;6.50;99.90;;;;;;4974138;28;20227;-89
2021/03/06 11:28:32;;;;;;;0.57;0.57;;;6.40;99.90;;;;;;4988455;28;20211;-86
2021/03/06 11:31:00;;;;;;;0.40;0.40;;;6.50;99.90;;;;;;4988617;28;20206;-85
2021/03/06 11:33:26;;;;;;;0.20;0.20;;;6.60;99.90;;;;;;4955857;28;20224;-87
2021/03/06 11:35:52;;;;;;;0.20;0.20;;;6.40;99.90;;;;;;4991013;28;20719;-89
2021/03/06 11:38:19;;;;;;;0.30;0.30;;;6.60;99.90;;;;;;4972068;28;20215;-89
2021/03/06 11:40:48;;;;;;;0.90;0.87;;;6.80;99.90;;;;;;4986972;28;20230;-89
2021/03/06 11:43:14;;;;;;;0.20;0.20;;;6.90;99.90;;;;;;4991719;28;20187;-87
2021/03/06 11:45:40;;;;;;;0.23;0.23;;;6.90;99.90;;;;;;4973969;28;20184;-86
2021/03/06 11:48:07;;;;;;;0.30;0.30;;;7.00;99.90;;;;;;4979811;28;20246;-86
2021/03/06 11:50:36;;;;;;;0.40;0.40;;;6.90;99.90;;;;;;4979596;28;20212;-87
2021/03/06 11:53:03;;;;;;;6.13;1.17;;;7.00;99.90;;;;;;4996903;28;20232;-87
2021/03/06 11:55:28;;;;;;;0.23;0.23;;;7.10;99.90;;;;;;4987941;28;20330;-86
2021/03/06 11:57:54;;;;;;;0.30;0.30;;;7.10;99.90;;;;;;5009355;28;20618;-88
2021/03/06 12:00:22;;;;;;;2.10;0.47;;;7.30;99.90;;;;;;4974461;28;20211;-87
2021/03/06 12:02:49;;;;;;;0.47;0.47;;;7.60;99.90;;;;;;4977898;28;20227;-86
2021/03/06 12:05:16;;;;;;;1.47;0.83;;;7.50;99.90;;;;;;4962781;28;20237;-88
2021/03/06 12:07:43;;;;;;;0.30;0.30;;;7.90;99.90;;;;;;4994875;28;20291;-85
2021/03/06 12:10:13;;;;;;;0.20;0.20;;;7.90;99.90;;;;;;4995407;28;20198;-86
2021/03/06 12:12:39;;;;;;;0.40;0.40;;;7.90;99.90;;;;;;4998004;28;20220;-87
2021/03/06 12:15:06;;;;;;;0.47;0.30;;;7.50;99.90;;;;;;4990418;28;20518;-86
2021/03/06 12:17:32;;;;;;;0.20;0.20;;;7.60;99.90;;;;;;4956369;28;20222;-87
2021/03/06 12:19:58;;;;;;;2.53;0.67;;;7.70;99.90;;;;;;4969652;28;20223;-87
2021/03/06 12:22:24;;;;;;;0.40;0.40;;;7.80;99.90;;;;;;4959154;28;20547;-86
2021/03/06 12:24:50;;;;;;;0.20;0.20;;;7.90;99.90;;;;;;4999471;28;20237;-85
2021/03/06 12:27:15;;;;;;;0.83;0.50;;;7.50;99.90;;;;;;4973924;28;20223;-89
2021/03/06 12:29:42;;;;;;;0.73;0.73;;;7.30;99.90;;;;;;4999637;28;20227;-88
2021/03/06 12:32:09;;;;;;;0.40;0.40;;;7.40;99.90;;;;;;4975370;28;20223;-87
2021/03/06 12:34:35;;;;;;;2.37;0.73;;;7.40;99.90;;;;;;4964219;28;20235;-87
2021/03/06 12:37:01;;;;;;;0.83;0.83;;;7.70;99.90;;;;;;4980505;28;20191;-88
2021/03/06 12:39:27;;;;;;;2.63;0.80;;;7.40;99.90;;;;;;4977658;28;21122;-88
2021/03/06 12:41:53;;;;;;;1.90;0.43;;;7.40;99.90;;;;;;4972359;28;20227;-87
2021/03/06 12:44:20;;;;;;;1.03;0.80;;;7.50;99.90;;;;;;4975749;28;20223;-88
2021/03/06 12:46:49;;;;;;;3.53;0.67;;;7.40;99.90;;;;;;4985170;28;20224;-89
2021/03/06 12:49:16;;;;;;;0.50;0.50;;;7.40;99.90;;;;;;4980566;28;20198;-89
2021/03/06 12:51:42;;;;;;;0.40;0.40;;;7.50;99.90;;;;;;4981260;28;20212;-91
2021/03/06 12:54:08;;;;;;;0.47;0.47;;;7.30;99.90;;;;;;4994982;28;20833;-87
2021/03/06 12:56:34;;;;;;;0.43;0.43;;;7.30;99.90;;;;;;4963357;28;20222;-87
2021/03/06 12:59:00;;;;;;;0.47;0.47;;;7.20;99.90;;;;;;4998949;28;20216;-86
2021/03/06 13:01:26;;;;;;;0.37;0.37;;;7.30;99.90;;;;;;4977170;28;20226;-86
2021/03/06 13:03:52;;;;;;;0.47;0.47;;;7.40;99.90;;;;;;4976486;28;20204;-87
2021/03/06 13:06:19;;;;;;;2.53;1.77;;;7.20;99.90;;;;;;4982961;28;20223;-87